createdAt,value
2023-03-02T00:02:07.094Z,1.67
2023-03-02T00:04:46.891Z,2.10
2023-03-02T00:07:20.036Z,2.05
2023-03-02T00:09:48.027Z,2.63
2023-03-02T00:12:16.518Z,3.10
2023-03-02T00:14:44.556Z,3.28
2023-03-02T00:17:12.901Z,4.20
2023-03-02T00:19:42.520Z,2.83
2023-03-02T00:22:11.201Z,3.75
2023-03-02T00:24:39.357Z,2.90
2023-03-02T00:27:07.307Z,3.55
2023-03-02T00:29:35.312Z,2.60
2023-03-02T00:32:04.201Z,2.50
2023-03-02T00:34:32.619Z,2.05
2023-03-02T00:37:00.721Z,1.52
2023-03-02T00:39:28.682Z,1.80
2023-03-02T00:41:56.654Z,1.50
2023-03-02T00:44:24.542Z,1.42
2023-03-02T00:46:52.490Z,1.25
2023-03-02T00:49:20.383Z,1.00
2023-03-02T00:51:48.218Z,1.13
2023-03-02T00:54:16.180Z,1.00
2023-03-02T00:56:44.463Z,1.38
2023-03-02T00:59:29.094Z,1.10
2023-03-02T01:02:29.617Z,1.23
2023-03-02T01:04:57.692Z,1.10
2023-03-02T01:07:26.473Z,1.30
2023-03-02T01:09:54.531Z,1.33
2023-03-02T01:12:23.064Z,1.40
2023-03-02T01:14:51.106Z,1.45
2023-03-02T01:17:22.496Z,1.80
2023-03-02T01:19:50.437Z,1.67
2023-03-02T01:22:19.513Z,1.65
2023-03-02T01:24:47.421Z,1.70
2023-03-02T01:27:15.390Z,1.45
2023-03-02T01:29:43.392Z,1.42
2023-03-02T01:32:11.570Z,1.48
2023-03-02T01:34:39.571Z,1.17
2023-03-02T01:37:07.432Z,1.35
2023-03-02T01:39:35.330Z,1.05
2023-03-02T01:42:03.246Z,1.20
2023-03-02T01:44:52.502Z,1.40
2023-03-02T01:47:47.296Z,1.08
2023-03-02T01:50:26.727Z,1.10
2023-03-02T01:52:58.436Z,1.05
2023-03-02T01:55:30.989Z,0.90
2023-03-02T01:58:00.644Z,1.15
2023-03-02T02:00:33.494Z,1.10
2023-03-02T02:03:09.946Z,1.20
2023-03-02T02:05:41.328Z,1.00
2023-03-02T02:08:09.945Z,1.42
2023-03-02T02:10:39.781Z,1.52
2023-03-02T02:13:11.810Z,1.52
2023-03-02T02:15:41.738Z,1.67
2023-03-02T02:18:10.006Z,1.55
2023-03-02T02:20:46.883Z,1.80
2023-03-02T02:23:28.160Z,1.40
2023-03-02T02:25:56.169Z,1.88
2023-03-02T02:28:42.597Z,1.60
2023-03-02T02:31:10.475Z,1.90
2023-03-02T02:33:42.404Z,1.80
2023-03-02T02:36:27.199Z,1.80
2023-03-02T02:38:56.759Z,1.80
2023-03-02T02:41:30.046Z,2.13
2023-03-02T02:43:58.411Z,2.30
2023-03-02T02:46:27.383Z,2.58
2023-03-02T02:48:56.400Z,2.22
2023-03-02T02:51:29.075Z,2.95
2023-03-02T02:54:00.483Z,2.85
2023-03-02T02:56:36.338Z,2.90
2023-03-02T02:59:18.335Z,2.63
2023-03-02T03:01:47.803Z,2.63
2023-03-02T03:04:22.470Z,3.10
2023-03-02T03:06:58.045Z,3.17
2023-03-02T03:09:26.918Z,3.25
2023-03-02T03:12:09.386Z,2.70
2023-03-02T03:14:41.387Z,2.97
2023-03-02T03:17:14.564Z,3.35
2023-03-02T03:19:49.329Z,6.13
2023-03-02T03:22:18.077Z,6.50
2023-03-02T03:24:48.744Z,6.38
2023-03-02T03:27:18.824Z,6.53
2023-03-02T03:29:50.685Z,7.80
2023-03-02T03:32:21.997Z,6.75
2023-03-02T03:34:53.204Z,6.80
2023-03-02T03:37:28.786Z,8.38
2023-03-02T03:39:56.829Z,9.60
2023-03-02T03:42:24.726Z,10.50
2023-03-02T03:44:54.450Z,11.85
2023-03-02T03:47:22.639Z,15.50
2023-03-02T03:49:52.064Z,15.90
2023-03-02T03:52:31.033Z,19.08
2023-03-02T03:55:11.434Z,19.30
2023-03-02T03:57:39.923Z,20.85
2023-03-02T04:00:11.126Z,21.15
2023-03-02T04:02:42.223Z,21.58
2023-03-02T04:05:12.440Z,22.48
2023-03-02T04:07:40.850Z,22.33
2023-03-02T04:10:10.163Z,23.33
2023-03-02T04:12:41.776Z,24.38
2023-03-02T04:15:15.068Z,25.30
2023-03-02T04:17:45.267Z,25.45
2023-03-02T04:20:17.089Z,25.52
2023-03-02T04:22:51.040Z,26.98
2023-03-02T04:25:22.940Z,26.45
2023-03-02T04:27:54.555Z,27.60
2023-03-02T04:30:26.677Z,27.42
2023-03-02T04:32:57.812Z,28.35
2023-03-02T04:35:28.930Z,27.02
2023-03-02T04:37:57.260Z,28.17
2023-03-02T04:40:25.833Z,27.27
2023-03-02T04:42:53.798Z,28.70
2023-03-02T04:45:21.746Z,27.65
2023-03-02T04:47:49.686Z,29.08
2023-03-02T04:50:17.652Z,29.23
2023-03-02T04:52:45.656Z,28.83
2023-03-02T04:55:23.514Z,29.17
2023-03-02T04:57:51.536Z,30.08
2023-03-02T05:00:21.197Z,28.20
2023-03-02T05:02:49.094Z,29.42
2023-03-02T05:05:19.833Z,28.92
2023-03-02T05:07:48.110Z,28.35
2023-03-02T05:10:17.777Z,27.83
2023-03-02T05:12:55.498Z,28.45
2023-03-02T05:15:37.298Z,28.60
2023-03-02T05:18:09.205Z,28.55
2023-03-02T05:20:37.544Z,28.88
2023-03-02T05:23:07.705Z,29.50
2023-03-02T05:25:37.982Z,27.60
2023-03-02T05:28:06.273Z,28.33
2023-03-02T05:30:37.906Z,29.30
2023-03-02T05:33:06.033Z,27.52
2023-03-02T05:35:34.090Z,28.50
2023-03-02T05:38:02.034Z,29.25
2023-03-02T05:40:30.073Z,28.02
2023-03-02T05:42:58.098Z,26.73
2023-03-02T05:45:32.189Z,26.05
2023-03-02T05:48:00.115Z,27.92
2023-03-02T05:50:28.165Z,27.65
2023-03-02T05:52:56.194Z,26.50
2023-03-02T05:55:24.728Z,28.13
2023-03-02T05:57:53.532Z,27.67
2023-03-02T06:00:21.876Z,28.70
2023-03-02T06:02:49.849Z,28.90
2023-03-02T06:05:20.105Z,29.73
2023-03-02T06:07:48.052Z,29.02
2023-03-02T06:10:16.221Z,28.50
2023-03-02T06:12:44.277Z,29.48
2023-03-02T06:15:12.382Z,29.92
2023-03-02T06:17:40.549Z,28.90
2023-03-02T06:20:11.531Z,28.60
2023-03-02T06:22:47.141Z,28.85
2023-03-02T06:25:21.109Z,29.38
2023-03-02T06:27:53.986Z,28.30
2023-03-02T06:30:25.182Z,27.55
2023-03-02T06:32:53.119Z,27.95
2023-03-02T06:35:21.283Z,27.48
2023-03-02T06:37:49.342Z,28.17
2023-03-02T06:40:17.566Z,26.55
2023-03-02T06:42:45.610Z,27.20
2023-03-02T06:45:13.543Z,26.63
2023-03-02T06:47:41.638Z,28.95
2023-03-02T06:50:11.829Z,28.35
2023-03-02T06:52:39.840Z,27.65
2023-03-02T06:55:08.327Z,26.85
2023-03-02T06:57:36.394Z,27.45
2023-03-02T07:00:10.317Z,27.90
2023-03-02T07:02:38.426Z,28.15
2023-03-02T07:05:07.226Z,27.63
2023-03-02T07:07:35.397Z,25.48
2023-03-02T07:10:04.350Z,26.08
2023-03-02T07:12:32.691Z,27.30
2023-03-02T07:15:00.774Z,26.42
2023-03-02T07:17:28.829Z,25.85
2023-03-02T07:19:57.060Z,25.83
2023-03-02T07:22:25.102Z,24.98
2023-03-02T07:24:53.156Z,24.42
2023-03-02T07:27:21.187Z,21.45
2023-03-02T07:29:49.498Z,21.65
2023-03-02T07:32:17.651Z,21.30
2023-03-02T07:34:45.617Z,21.27
2023-03-02T07:37:13.694Z,21.38
2023-03-02T07:39:41.589Z,20.27
2023-03-02T07:42:12.524Z,21.35
2023-03-02T07:44:43.298Z,20.55
2023-03-02T07:47:11.356Z,19.58
2023-03-02T07:49:39.636Z,20.00
2023-03-02T07:52:07.695Z,19.75
2023-03-02T07:54:35.648Z,18.92
2023-03-02T07:57:03.756Z,18.75
2023-03-02T07:59:31.700Z,18.40
2023-03-02T08:01:59.879Z,17.55
2023-03-02T08:04:28.324Z,19.10
2023-03-02T08:06:56.380Z,18.77
2023-03-02T08:09:24.712Z,18.20
2023-03-02T08:11:52.609Z,20.23
2023-03-02T08:14:20.582Z,20.45
2023-03-02T08:16:48.681Z,20.25
2023-03-02T08:19:16.640Z,20.80
2023-03-02T08:21:44.940Z,19.83
2023-03-02T08:24:13.140Z,19.02
2023-03-02T08:26:41.196Z,20.83
2023-03-02T08:29:09.698Z,19.70
2023-03-02T08:31:37.689Z,19.20
2023-03-02T08:34:06.152Z,19.48
2023-03-02T08:36:34.364Z,17.48
2023-03-02T08:39:02.830Z,18.02
2023-03-02T08:41:30.970Z,18.15
2023-03-02T08:43:59.141Z,19.17
2023-03-02T08:46:27.165Z,16.92
2023-03-02T08:48:55.283Z,16.02
2023-03-02T08:51:25.677Z,17.38
2023-03-02T08:53:55.661Z,15.93
2023-03-02T08:56:32.687Z,14.35
2023-03-02T08:59:04.072Z,15.93
2023-03-02T09:01:36.363Z,14.65
2023-03-02T09:04:06.922Z,12.77
2023-03-02T09:06:38.816Z,12.25
2023-03-02T09:09:08.230Z,9.18
2023-03-02T09:11:37.035Z,6.72
2023-03-02T09:14:05.484Z,6.38
2023-03-02T09:16:33.495Z,7.50
2023-03-02T09:19:01.847Z,7.72
2023-03-02T09:21:29.860Z,8.35
2023-03-02T09:23:58.638Z,8.68
2023-03-02T09:26:28.033Z,8.00
2023-03-02T09:28:56.940Z,7.88
2023-03-02T09:31:25.386Z,7.45
2023-03-02T09:33:53.465Z,7.95
2023-03-02T09:36:24.211Z,8.02
2023-03-02T09:38:52.419Z,7.90
2023-03-02T09:41:20.497Z,7.40
2023-03-02T09:43:48.482Z,7.80
2023-03-02T09:46:32.151Z,7.72
2023-03-02T09:49:32.375Z,8.40
2023-03-02T09:52:19.030Z,8.10
2023-03-02T09:54:47.102Z,7.70
2023-03-02T09:57:24.292Z,7.13
2023-03-02T10:00:18.193Z,8.23
2023-03-02T10:02:49.063Z,6.93
2023-03-02T10:05:23.457Z,6.88
2023-03-02T10:07:52.152Z,7.20
2023-03-02T10:10:40.855Z,6.43
2023-03-02T10:13:20.507Z,7.15
2023-03-02T10:16:14.462Z,5.65
2023-03-02T10:18:48.452Z,13.55
2023-03-02T10:21:33.329Z,9.40
2023-03-02T10:24:10.796Z,6.22
2023-03-02T10:26:45.076Z,6.38
2023-03-02T10:29:30.932Z,4.30
2023-03-02T10:32:23.760Z,4.13
2023-03-02T10:34:53.635Z,4.47
2023-03-02T10:37:28.878Z,4.05
2023-03-02T10:39:57.276Z,3.63
2023-03-02T10:42:42.905Z,4.10
2023-03-02T10:45:43.027Z,1.67
2023-03-02T10:48:14.380Z,1.88
2023-03-02T10:50:44.238Z,1.40
2023-03-02T10:53:18.189Z,1.40
2023-03-02T10:55:49.805Z,1.55
2023-03-02T10:58:32.299Z,1.58
2023-03-02T11:01:06.088Z,1.45
2023-03-02T11:03:34.472Z,2.00
2023-03-02T11:06:19.389Z,1.80
2023-03-02T11:08:57.807Z,1.75
2023-03-02T11:11:26.534Z,1.80
2023-03-02T11:13:56.635Z,2.25
2023-03-02T11:16:32.290Z,2.20
2023-03-02T11:19:14.395Z,2.28
2023-03-02T11:22:11.035Z,1.65
2023-03-02T11:24:49.437Z,1.40
2023-03-02T11:27:22.950Z,1.77
2023-03-02T11:29:57.573Z,4.93
2023-03-02T11:32:36.278Z,8.48
2023-03-02T11:35:11.750Z,5.55
2023-03-02T11:37:48.439Z,7.32
2023-03-02T11:40:31.750Z,1.92
2023-03-02T11:43:02.136Z,1.65
2023-03-02T11:45:35.638Z,1.40
2023-03-02T11:48:08.488Z,1.30
2023-03-02T11:50:54.712Z,1.30
2023-03-02T11:53:26.616Z,1.10
2023-03-02T11:55:54.649Z,1.10
2023-03-02T11:58:26.191Z,1.08
2023-03-02T12:00:56.292Z,1.30
2023-03-02T12:03:38.394Z,1.77
2023-03-02T12:06:28.874Z,1.10
2023-03-02T12:09:25.001Z,1.45
2023-03-02T12:12:00.722Z,1.48
2023-03-02T12:14:38.411Z,1.20
2023-03-02T12:17:26.062Z,1.65
2023-03-02T12:20:07.976Z,1.67
2023-03-02T12:22:38.070Z,1.52
2023-03-02T12:25:21.351Z,1.70
2023-03-02T12:27:52.831Z,1.83
2023-03-02T12:30:28.463Z,2.08
2023-03-02T12:33:19.831Z,1.23
2023-03-02T12:35:51.359Z,1.63
2023-03-02T12:38:31.279Z,1.90
2023-03-02T12:41:46.922Z,1.73
2023-03-02T12:44:31.960Z,1.50
2023-03-02T12:47:02.956Z,1.67
2023-03-02T12:49:47.617Z,1.75
2023-03-02T12:52:58.145Z,1.70
2023-03-02T12:55:26.680Z,1.63
2023-03-02T12:58:01.607Z,1.83
2023-03-02T13:00:33.018Z,2.35
2023-03-02T13:03:07.662Z,1.80
2023-03-02T13:05:36.760Z,2.00
2023-03-02T13:08:21.407Z,2.15
2023-03-02T13:10:50.297Z,1.90
2023-03-02T13:13:27.145Z,2.22
2023-03-02T13:15:58.630Z,1.92
2023-03-02T13:18:33.363Z,1.90
2023-03-02T13:21:04.046Z,1.38
2023-03-02T13:23:33.840Z,1.83
2023-03-02T13:26:04.875Z,1.60
2023-03-02T13:28:38.597Z,1.80
2023-03-02T13:31:19.928Z,1.67
2023-03-02T13:33:50.710Z,1.60
2023-03-02T13:36:31.132Z,2.13
2023-03-02T13:39:00.531Z,1.55
2023-03-02T13:41:31.530Z,2.28
2023-03-02T13:44:11.147Z,2.05
2023-03-02T13:46:41.762Z,2.30
2023-03-02T13:49:11.474Z,1.98
2023-03-02T13:51:43.308Z,1.98
2023-03-02T13:54:26.878Z,2.38
2023-03-02T13:56:57.189Z,2.60
2023-03-02T13:59:25.515Z,2.08
2023-03-02T14:01:53.413Z,2.30
2023-03-02T14:04:26.013Z,1.98
2023-03-02T14:06:55.142Z,2.13
2023-03-02T14:09:23.095Z,2.17
2023-03-02T14:11:54.034Z,2.60
2023-03-02T14:14:25.266Z,2.33
2023-03-02T14:16:53.144Z,3.05
2023-03-02T14:19:21.517Z,2.63
2023-03-02T14:21:49.375Z,2.63
2023-03-02T14:24:17.184Z,2.20
2023-03-02T14:26:48.202Z,3.17
2023-03-02T14:29:26.922Z,2.78
2023-03-02T14:31:56.461Z,2.30
2023-03-02T14:34:24.525Z,1.80
2023-03-02T14:36:55.512Z,1.30
2023-03-02T14:39:32.774Z,1.38
2023-03-02T14:42:00.769Z,1.65
2023-03-02T14:44:28.618Z,1.48
2023-03-02T14:46:57.723Z,1.77
2023-03-02T14:49:25.862Z,1.40
2023-03-02T14:52:23.717Z,3.03
2023-03-02T14:54:59.040Z,1.75
2023-03-02T14:57:29.407Z,1.10
2023-03-02T15:00:00.086Z,1.20
2023-03-02T15:02:28.865Z,1.40
2023-03-02T15:04:57.672Z,1.27
2023-03-02T15:07:27.890Z,1.25
2023-03-02T15:09:57.702Z,1.30
2023-03-02T15:12:25.620Z,1.10
2023-03-02T15:14:53.524Z,1.27
2023-03-02T15:17:21.423Z,1.30
2023-03-02T15:19:49.409Z,1.95
2023-03-02T15:22:17.682Z,1.70
2023-03-02T15:24:45.616Z,1.40
2023-03-02T15:27:13.471Z,1.77
2023-03-02T15:29:46.341Z,2.00
2023-03-02T15:32:15.070Z,2.10
2023-03-02T15:34:43.416Z,2.25
2023-03-02T15:37:11.960Z,2.10
2023-03-02T15:39:40.435Z,2.22
2023-03-02T15:42:08.608Z,2.28
2023-03-02T15:44:36.521Z,2.28
2023-03-02T15:47:04.782Z,2.40
2023-03-02T15:49:33.065Z,2.50
2023-03-02T15:52:01.489Z,3.20
2023-03-02T15:54:29.606Z,2.50
2023-03-02T15:56:57.931Z,2.75
2023-03-02T15:59:28.734Z,2.95
2023-03-02T16:02:02.351Z,3.05
2023-03-02T16:04:32.656Z,3.58
2023-03-02T16:07:00.945Z,2.45
2023-03-02T16:09:29.262Z,2.70
2023-03-02T16:11:57.914Z,3.88
2023-03-02T16:14:26.300Z,3.25
2023-03-02T16:16:54.367Z,6.80
2023-03-02T16:19:22.232Z,14.57
2023-03-02T16:21:50.149Z,12.55
2023-03-02T16:24:18.151Z,10.70
2023-03-02T16:26:46.096Z,45.38
2023-03-02T16:29:14.274Z,18.35
2023-03-02T16:31:45.511Z,20.13
2023-03-02T16:34:14.241Z,13.52
2023-03-02T16:36:42.632Z,11.75
2023-03-02T16:39:11.974Z,11.30
2023-03-02T16:41:42.643Z,10.00
2023-03-02T16:44:11.882Z,10.35
2023-03-02T16:46:40.416Z,16.42
2023-03-02T16:49:08.376Z,14.45
2023-03-02T16:51:36.563Z,23.98
2023-03-02T16:54:05.319Z,29.80
2023-03-02T16:56:51.904Z,35.72
2023-03-02T16:59:19.847Z,27.83
2023-03-02T17:01:47.893Z,11.57
2023-03-02T17:04:18.712Z,10.77
2023-03-02T17:07:03.112Z,18.65
2023-03-02T17:09:31.730Z,12.27
2023-03-02T17:11:59.755Z,12.10
2023-03-02T17:14:28.360Z,13.20
2023-03-02T17:16:59.616Z,14.38
2023-03-02T17:19:29.732Z,13.45
2023-03-02T17:22:02.025Z,13.48
2023-03-02T17:24:30.529Z,18.57
2023-03-02T17:26:58.779Z,14.75
2023-03-02T17:29:27.071Z,15.90
2023-03-02T17:31:55.564Z,15.18
2023-03-02T17:34:23.814Z,20.20
2023-03-02T17:36:51.886Z,18.65
2023-03-02T17:39:20.182Z,20.15
2023-03-02T17:41:48.302Z,14.43
2023-03-02T17:44:16.460Z,15.32
2023-03-02T17:46:45.880Z,15.25
2023-03-02T17:49:14.160Z,25.90
2023-03-02T17:51:42.330Z,23.45
2023-03-02T17:54:10.479Z,61.72
2023-03-02T17:56:38.686Z,31.45
2023-03-02T17:59:07.191Z,19.00
2023-03-02T18:01:35.572Z,14.63
2023-03-02T18:04:03.858Z,15.95
2023-03-02T18:06:32.292Z,14.25
2023-03-02T18:09:00.335Z,14.73
2023-03-02T18:11:28.486Z,14.50
2023-03-02T18:13:56.761Z,14.40
2023-03-02T18:16:28.357Z,15.43
2023-03-02T18:18:57.649Z,14.98
2023-03-02T18:21:26.172Z,16.52
2023-03-02T18:23:55.023Z,16.50
2023-03-02T18:26:23.148Z,15.88
2023-03-02T18:28:51.338Z,15.63
2023-03-02T18:31:20.527Z,15.73
2023-03-02T18:33:49.196Z,15.40
2023-03-02T18:36:17.321Z,15.70
2023-03-02T18:38:45.631Z,17.55
2023-03-02T18:41:14.516Z,17.02
2023-03-02T18:43:43.105Z,25.90
2023-03-02T18:46:25.635Z,27.63
2023-03-02T18:48:55.678Z,25.70
2023-03-02T18:51:25.699Z,18.80
2023-03-02T18:53:54.907Z,17.20
2023-03-02T18:56:23.729Z,16.73
2023-03-02T18:58:52.445Z,17.92
2023-03-02T19:01:21.532Z,18.33
2023-03-02T19:03:50.278Z,17.70
2023-03-02T19:06:18.462Z,19.13
2023-03-02T19:08:48.444Z,18.30
2023-03-02T19:11:16.583Z,17.75
2023-03-02T19:13:44.644Z,17.33
2023-03-02T19:16:14.265Z,16.00
2023-03-02T19:18:42.595Z,18.17
2023-03-02T19:21:10.751Z,17.48
2023-03-02T19:23:38.950Z,18.75
2023-03-02T19:26:07.677Z,15.95
2023-03-02T19:28:37.565Z,15.15
2023-03-02T19:31:09.130Z,15.25
2023-03-02T19:33:37.965Z,16.20
2023-03-02T19:36:07.054Z,16.08
2023-03-02T19:38:38.118Z,16.98
2023-03-02T19:41:06.505Z,16.50
2023-03-02T19:43:34.721Z,16.60
2023-03-02T19:46:03.006Z,16.15
2023-03-02T19:48:31.341Z,16.50
2023-03-02T19:50:59.522Z,16.45
2023-03-02T19:53:27.650Z,18.27
2023-03-02T19:56:03.847Z,18.65
2023-03-02T19:58:33.720Z,17.23
2023-03-02T20:01:04.296Z,16.80
2023-03-02T20:03:32.500Z,16.90
2023-03-02T20:06:00.772Z,18.02
2023-03-02T20:08:29.383Z,19.13
2023-03-02T20:10:57.405Z,18.85
2023-03-02T20:13:27.149Z,21.33
2023-03-02T20:15:55.441Z,19.23
2023-03-02T20:18:23.469Z,19.42
2023-03-02T20:20:51.574Z,19.42
2023-03-02T20:23:19.729Z,18.98
2023-03-02T20:25:48.497Z,21.25
2023-03-02T20:28:22.873Z,21.45
2023-03-02T20:30:56.879Z,21.88
2023-03-02T20:33:32.292Z,22.35
2023-03-02T20:36:04.490Z,21.90
2023-03-02T20:38:38.221Z,22.27
2023-03-02T20:41:09.387Z,24.75
2023-03-02T20:43:38.730Z,23.50
2023-03-02T20:46:10.862Z,25.00
2023-03-02T20:48:40.897Z,20.80
2023-03-02T20:51:10.829Z,21.50
2023-03-02T20:53:39.329Z,20.45
2023-03-02T20:56:07.525Z,21.80
2023-03-02T20:58:38.799Z,20.05
2023-03-02T21:01:31.530Z,20.58
2023-03-02T21:04:00.035Z,18.23
2023-03-02T21:06:29.756Z,17.98
2023-03-02T21:09:05.042Z,18.90
2023-03-02T21:11:34.548Z,17.25
2023-03-02T21:14:03.199Z,17.00
2023-03-02T21:16:36.325Z,16.60
2023-03-02T21:19:10.335Z,18.08
2023-03-02T21:21:42.326Z,15.63
2023-03-02T21:24:13.261Z,17.42
2023-03-02T21:26:41.887Z,16.38
2023-03-02T21:29:11.961Z,16.30
2023-03-02T21:31:42.543Z,16.73
2023-03-02T21:34:12.716Z,17.33
2023-03-02T21:36:41.129Z,17.38
2023-03-02T21:39:09.891Z,17.95
2023-03-02T21:41:38.116Z,20.00
2023-03-02T21:44:06.861Z,18.65
2023-03-02T21:46:37.910Z,17.33
2023-03-02T21:49:06.567Z,17.05
2023-03-02T21:51:34.987Z,16.98
2023-03-02T21:54:03.437Z,16.02
2023-03-02T21:56:31.408Z,18.02
2023-03-02T21:58:59.822Z,16.48
2023-03-02T22:01:30.012Z,16.55
2023-03-02T22:03:57.966Z,17.17
2023-03-02T22:06:29.732Z,16.60
2023-03-02T22:08:58.038Z,16.20
2023-03-02T22:11:34.485Z,16.23
2023-03-02T22:14:12.359Z,16.73
2023-03-02T22:16:43.045Z,16.13
2023-03-02T22:19:38.520Z,16.65
2023-03-02T22:22:19.435Z,15.70
2023-03-02T22:24:51.338Z,14.80
2023-03-02T22:27:28.606Z,15.18
2023-03-02T22:29:59.479Z,13.65
2023-03-02T22:32:30.455Z,15.35
2023-03-02T22:35:01.906Z,15.73
2023-03-02T22:37:33.566Z,14.57
2023-03-02T22:40:08.512Z,14.20
2023-03-02T22:42:36.561Z,14.60
2023-03-02T22:45:17.361Z,14.07
2023-03-02T22:47:49.411Z,14.20
2023-03-02T22:50:25.540Z,14.02
2023-03-02T22:52:56.284Z,14.13
2023-03-02T22:55:43.254Z,14.20
2023-03-02T22:58:43.836Z,14.70
2023-03-02T23:01:21.278Z,14.35
2023-03-02T23:03:52.884Z,14.65
2023-03-02T23:06:34.031Z,14.88
2023-03-02T23:09:04.889Z,14.02
2023-03-02T23:11:38.198Z,13.60
2023-03-02T23:17:13.011Z,13.20
2023-03-02T23:19:40.970Z,13.85
2023-03-02T23:22:09.735Z,14.43
2023-03-02T23:24:37.662Z,14.10
2023-03-02T23:27:05.904Z,14.30
2023-03-02T23:29:33.845Z,13.60
2023-03-02T23:32:02.263Z,13.93
2023-03-02T23:34:31.413Z,15.13
2023-03-02T23:37:00.232Z,14.25
2023-03-02T23:39:28.171Z,12.90
2023-03-02T23:41:56.322Z,12.82
2023-03-02T23:44:24.231Z,13.38
2023-03-02T23:46:52.569Z,13.60
2023-03-02T23:49:20.524Z,12.85
2023-03-02T23:51:48.843Z,13.40
2023-03-02T23:54:16.818Z,13.68
2023-03-02T23:56:44.640Z,13.30
2023-03-02T23:59:12.607Z,13.38
